• Join FlightAware (Why Join?)
  • Login
  • US Flag 
11:57PM EDT


 

Airport Tracker/Info


-or-


 

Live Flight TrackerFlight Track Log ✈ TYR847 ✈ 05-Feb-2014 ✈ LOWW / VIE - LATI / TIA

Flight Track Log - Related Links

Times and Time Zones

All times are in EST time to prevent confusion due to time zone crossing. See the TYR847 flight status page for this flight to view local times or setup timezone preferences in your user account.

Time Position Orientation Groundspeed Altitude Reporting Facility
EST Latitude Longitude Course Direction KTS MPH feet Rate Location/Type
06:56AM 47.8253 16.7208 160° South  Level Estimated
06:57AM 47.7303 16.7708 161° South  Level Estimated
06:58AM 47.6353 16.8206 161° South  Level Estimated
06:59AM 47.5402 16.8702 161° South  Level Estimated
07:00AM 47.4451 16.9197 161° South  Level Estimated
07:01AM 47.3500 16.9690 161° South  Level Estimated
07:02AM 47.2548 17.0181 161° South  Level Estimated
07:03AM 47.1597 17.0670 161° South  Level Estimated
07:04AM 47.0645 17.1157 161° South  Level Estimated
07:05AM 46.9693 17.1643 161° South  Level Estimated
07:06AM 46.8741 17.2127 161° South  Level Estimated
07:07AM 46.7789 17.2609 161° South  Level Estimated
07:08AM 46.6836 17.3090 161° South  Level Estimated
07:09AM 46.5883 17.3569 161° South  Level Estimated
07:10AM 46.4930 17.4046 161° South  Level Estimated
07:11AM 46.3977 17.4521 161° South  Level Estimated
07:12AM 46.3024 17.4995 161° South  Level Estimated
07:13AM 46.2070 17.5467 161° South  Level Estimated
07:14AM 46.1116 17.5938 161° South  Level Estimated
07:15AM 46.0163 17.6407 161° South  Level Estimated
07:16AM 45.9208 17.6874 161° South  Level Estimated
07:17AM 45.8254 17.7340 161° South  Level Estimated
07:18AM 45.7300 17.7804 161° South  Level Estimated
07:19AM 45.6345 17.8267 161° South  Level Estimated
07:20AM 45.5390 17.8728 161° South  Level Estimated
07:21AM 45.4435 17.9187 161° South  Level Estimated
07:22AM 45.3480 17.9645 161° South  Level Estimated
07:23AM 45.2524 18.0101 161° South  Level Estimated
07:24AM 45.1569 18.0556 161° South  Level Estimated
07:25AM 45.0613 18.1010 161° South  Level Estimated
07:26AM 44.9657 18.1461 162° South  Level Estimated
07:27AM 44.8701 18.1912 162° South  Level Estimated
07:28AM 44.7744 18.2360 162° South  Level Estimated
07:29AM 44.6788 18.2808 162° South  Level Estimated
07:30AM 44.5831 18.3253 162° South  Level Estimated
07:31AM 44.4874 18.3698 162° South  Level Estimated
07:32AM 44.3917 18.4141 162° South  Level Estimated
07:33AM 44.2960 18.4582 162° South  Level Estimated
07:34AM 44.2003 18.5022 162° South  Level Estimated
07:35AM 44.1045 18.5461 162° South  Level Estimated
07:36AM 44.0088 18.5898 162° South  Level Estimated
07:37AM 43.9130 18.6334 162° South  Level Estimated
07:38AM 43.8172 18.6768 162° South  Level Estimated
07:39AM 43.7214 18.7201 162° South  Level Estimated
07:40AM 43.6255 18.7632 162° South  Level Estimated
07:41AM 43.5297 18.8062 162° South  Level Estimated
07:42AM 43.4338 18.8491 162° South  Level Estimated
07:43AM 43.3379 18.8919 162° South  Level Estimated
07:44AM 43.2420 18.9345 162° South  Level Estimated
07:45AM 43.1461 18.9770 162° South  Level Estimated
07:46AM 43.0502 19.0193 162° South  Level Estimated
07:47AM 42.9542 19.0615 162° South  Level Estimated
07:48AM 42.8582 19.1036 162° South  Level Estimated
07:49AM 42.7623 19.1456 162° South  Level Estimated
07:50AM 42.6663 19.1874 162° South  Level Estimated
07:51AM 42.5703 19.2291 162° South  Level Estimated
07:52AM 42.4743 19.2706 162° South  Level Estimated
07:53AM 42.3782 19.3121 162° South  Level Estimated
07:54AM 42.2822 19.3534 162° South  Level Estimated
07:55AM 42.1861 19.3946 162° South  Level Estimated
07:56AM 42.0900 19.4356 162° South  Level Estimated
07:57AM 41.9939 19.4766 162° South  Level Estimated
07:58AM 41.8978 19.5174 162° South  Level Estimated
07:59AM 41.8017 19.5581 162° South  Level Estimated
08:00AM 41.7055 19.5986 163° South  Level Estimated
08:01AM 41.6094 19.6391 163° South  Level Estimated
08:02AM 41.5132 19.6794 163° South  Level Estimated
08:03AM 41.4170 19.7196 163° South  Level Estimated
08:04AM 41.4147 19.7206 163° South  Level Estimated
08:05AM 41.4147 19.7206 21° North  Level Estimated
08:06AM 41.4147 19.7206 21° North  Level Estimated
08:07AM 41.4147 19.7206 21° North  Level Estimated
08:08AM 41.4147 19.7206 21° North  Level Estimated